createdAt,value
2018-09-18T00:02:30.236Z,11.20
2018-09-18T00:04:59.809Z,11.10
2018-09-18T00:07:32.920Z,11.10
2018-09-18T00:10:02.090Z,11.20
2018-09-18T00:12:34.645Z,11.20
2018-09-18T00:15:04.494Z,11.10
2018-09-18T00:17:38.268Z,11.10
2018-09-18T00:20:08.399Z,11.00
2018-09-18T00:22:40.969Z,11.10
2018-09-18T00:25:16.465Z,11.20
2018-09-18T00:27:49.169Z,11.30
2018-09-18T00:30:18.384Z,11.30
2018-09-18T00:32:50.969Z,11.30
2018-09-18T00:35:20.666Z,11.10
2018-09-18T00:37:54.531Z,11.00
2018-09-18T00:40:23.551Z,10.90
2018-09-18T00:42:57.246Z,10.90
2018-09-18T00:45:26.596Z,10.90
2018-09-18T00:47:59.825Z,10.90
2018-09-18T00:50:29.564Z,10.80
2018-09-18T00:53:03.595Z,10.90
2018-09-18T00:55:33.167Z,10.90
2018-09-18T00:58:09.903Z,10.90
2018-09-18T01:00:39.304Z,11.00
2018-09-18T01:03:12.516Z,11.00
2018-09-18T01:05:41.831Z,10.90
2018-09-18T01:08:14.274Z,10.90
2018-09-18T01:10:43.772Z,10.90
2018-09-18T01:13:16.386Z,10.90
2018-09-18T01:15:45.983Z,10.90
2018-09-18T01:18:18.728Z,10.90
2018-09-18T01:20:48.887Z,10.90
2018-09-18T01:23:22.380Z,11.00
2018-09-18T01:25:51.693Z,11.00
2018-09-18T01:28:24.236Z,11.10
2018-09-18T01:30:53.540Z,11.10
2018-09-18T01:33:25.856Z,11.20
2018-09-18T01:35:55.117Z,11.30
2018-09-18T01:38:28.171Z,11.30
2018-09-18T01:40:57.671Z,11.20
2018-09-18T01:43:30.463Z,11.10
2018-09-18T01:46:00.385Z,11.10
2018-09-18T01:48:33.081Z,11.10
2018-09-18T01:51:02.310Z,11.00
2018-09-18T01:53:34.885Z,11.00
2018-09-18T01:56:04.671Z,11.00
2018-09-18T01:58:41.235Z,10.90
2018-09-18T02:01:10.430Z,10.90
2018-09-18T02:03:43.027Z,11.00
2018-09-18T02:06:12.338Z,11.00
2018-09-18T02:08:44.680Z,11.10
2018-09-18T02:11:14.472Z,11.00
2018-09-18T02:13:48.440Z,10.90
2018-09-18T02:16:17.868Z,10.80
2018-09-18T02:18:51.084Z,10.70
2018-09-18T02:21:20.582Z,10.70
2018-09-18T02:23:53.799Z,10.70
2018-09-18T02:26:22.893Z,10.70
2018-09-18T02:28:56.429Z,10.70
2018-09-18T02:31:26.264Z,10.80
2018-09-18T02:33:59.171Z,10.70
2018-09-18T02:36:28.726Z,10.60
2018-09-18T02:39:02.674Z,10.60
2018-09-18T02:41:31.949Z,10.60
2018-09-18T02:44:05.478Z,10.60
2018-09-18T02:46:35.137Z,10.50
2018-09-18T02:49:08.219Z,10.60
2018-09-18T02:51:37.612Z,10.50
2018-09-18T02:54:10.333Z,10.50
2018-09-18T02:56:39.500Z,10.50
2018-09-18T02:59:27.097Z,10.50
2018-09-18T03:01:56.730Z,10.50
2018-09-18T03:04:28.752Z,10.50
2018-09-18T03:06:58.173Z,10.60
2018-09-18T03:09:32.377Z,10.80
2018-09-18T03:12:02.851Z,10.70
2018-09-18T03:14:35.179Z,10.60
2018-09-18T03:17:04.442Z,10.60
2018-09-18T03:19:37.250Z,10.60
2018-09-18T03:22:06.506Z,10.60
2018-09-18T03:24:39.709Z,10.60
2018-09-18T03:27:09.182Z,10.70
2018-09-18T03:29:42.192Z,10.60
2018-09-18T03:32:12.084Z,10.60
2018-09-18T03:34:45.114Z,10.50
2018-09-18T03:37:14.313Z,10.50
2018-09-18T03:39:46.886Z,10.60
2018-09-18T03:42:17.603Z,10.60
2018-09-18T03:44:50.506Z,10.60
2018-09-18T03:47:22.864Z,10.50
2018-09-18T03:49:57.700Z,10.50
2018-09-18T03:52:26.977Z,10.60
2018-09-18T03:55:03.045Z,10.60
2018-09-18T03:57:33.050Z,10.60
2018-09-18T04:00:09.460Z,10.50
2018-09-18T04:02:38.983Z,10.50
2018-09-18T04:05:12.180Z,10.50
2018-09-18T04:07:41.475Z,10.60
2018-09-18T04:10:13.851Z,10.60
2018-09-18T04:12:43.355Z,10.60
2018-09-18T04:15:16.439Z,10.60
2018-09-18T04:17:46.222Z,10.60
2018-09-18T04:20:18.400Z,10.60
2018-09-18T04:22:48.292Z,10.60
2018-09-18T04:25:20.918Z,10.60
2018-09-18T04:27:50.322Z,10.70
2018-09-18T04:30:23.617Z,10.70
2018-09-18T04:32:53.280Z,10.60
2018-09-18T04:35:26.339Z,10.60
2018-09-18T04:37:56.033Z,10.50
2018-09-18T04:40:30.124Z,10.60
2018-09-18T04:42:59.957Z,10.80
2018-09-18T04:45:33.419Z,10.70
2018-09-18T04:48:02.490Z,10.70
2018-09-18T04:50:35.203Z,10.50
2018-09-18T04:53:06.150Z,10.40
2018-09-18T04:55:37.855Z,10.30
2018-09-18T04:58:07.241Z,10.30
2018-09-18T05:00:44.504Z,10.30
2018-09-18T05:03:13.640Z,10.30
2018-09-18T05:05:46.161Z,10.30
2018-09-18T05:08:16.650Z,10.30
2018-09-18T05:10:51.634Z,10.40
2018-09-18T05:13:21.001Z,10.40
2018-09-18T05:15:53.419Z,10.50
2018-09-18T05:18:22.766Z,10.60
2018-09-18T05:20:54.946Z,10.70
2018-09-18T05:23:23.775Z,10.80
2018-09-18T05:25:55.804Z,10.90
2018-09-18T05:28:25.648Z,11.00
2018-09-18T05:30:58.576Z,11.00
2018-09-18T05:33:27.224Z,11.10
2018-09-18T05:36:00.278Z,11.10
2018-09-18T05:38:28.877Z,11.10
2018-09-18T05:40:57.452Z,11.20
2018-09-18T05:43:28.890Z,11.30
2018-09-18T05:45:57.797Z,11.40
2018-09-18T05:48:29.765Z,11.40
2018-09-18T05:50:58.596Z,11.40
2018-09-18T05:53:31.633Z,11.60
2018-09-18T05:56:00.459Z,11.70
2018-09-18T05:58:34.365Z,11.80
2018-09-18T06:01:06.613Z,11.90
2018-09-18T06:03:38.913Z,11.90
2018-09-18T06:06:08.088Z,12.00
2018-09-18T06:08:41.496Z,12.00
2018-09-18T06:11:10.118Z,12.10
2018-09-18T06:13:43.281Z,12.20
2018-09-18T06:16:11.811Z,12.40
2018-09-18T06:18:40.376Z,12.50
2018-09-18T06:21:12.481Z,12.50
2018-09-18T06:23:41.213Z,12.70
2018-09-18T06:26:14.542Z,12.90
2018-09-18T06:28:43.052Z,13.10
2018-09-18T06:31:15.331Z,13.30
2018-09-18T06:33:43.868Z,13.40
2018-09-18T06:36:16.210Z,13.60
2018-09-18T06:38:44.793Z,13.80
2018-09-18T06:41:13.380Z,14.00
2018-09-18T06:43:44.859Z,14.20
2018-09-18T06:46:13.461Z,14.40
2018-09-18T06:48:42.024Z,14.50
2018-09-18T06:51:14.375Z,14.60
2018-09-18T06:53:42.925Z,14.80
2018-09-18T06:56:15.189Z,15.00
2018-09-18T06:58:43.940Z,15.10
2018-09-18T07:01:19.693Z,15.30
2018-09-18T07:03:48.474Z,15.50
2018-09-18T07:06:21.483Z,15.60
2018-09-18T07:08:50.005Z,15.70
2018-09-18T07:11:26.028Z,15.80
2018-09-18T07:13:54.640Z,15.90
2018-09-18T07:16:26.070Z,16.00
2018-09-18T07:18:55.550Z,16.20
2018-09-18T07:21:26.896Z,16.40
2018-09-18T07:23:56.200Z,16.50
2018-09-18T07:26:27.772Z,16.60
2018-09-18T07:28:56.306Z,16.70
2018-09-18T07:31:24.846Z,16.90
2018-09-18T07:33:57.419Z,17.10
2018-09-18T07:36:25.937Z,17.20
2018-09-18T07:38:58.215Z,17.40
2018-09-18T07:41:27.010Z,17.50
2018-09-18T07:43:59.077Z,17.60
2018-09-18T07:46:27.658Z,17.80
2018-09-18T07:49:04.441Z,18.00
2018-09-18T07:51:33.816Z,18.20
2018-09-18T07:54:06.230Z,18.30
2018-09-18T07:56:34.807Z,18.60
2018-09-18T07:59:07.248Z,18.70
2018-09-18T08:01:43.939Z,18.80
2018-09-18T08:04:16.125Z,19.10
2018-09-18T08:06:44.805Z,19.30
2018-09-18T08:09:16.979Z,19.70
2018-09-18T08:11:45.562Z,20.10
2018-09-18T08:14:14.159Z,20.30
2018-09-18T08:16:46.517Z,20.40
2018-09-18T08:19:15.148Z,20.60
2018-09-18T08:21:48.304Z,20.90
2018-09-18T08:24:16.876Z,21.10
2018-09-18T08:26:49.152Z,21.50
2018-09-18T08:29:17.770Z,21.80
2018-09-18T08:31:50.099Z,21.80
2018-09-18T08:34:18.695Z,22.00
2018-09-18T08:36:51.029Z,22.40
2018-09-18T08:39:19.576Z,22.70
2018-09-18T08:41:52.081Z,22.80
2018-09-18T08:44:20.775Z,23.00
2018-09-18T08:46:54.576Z,23.00
2018-09-18T08:49:23.844Z,23.30
2018-09-18T08:51:56.469Z,23.50
2018-09-18T08:54:25.074Z,23.50
2018-09-18T08:56:57.284Z,23.70
2018-09-18T08:59:25.976Z,23.70
2018-09-18T09:02:00.920Z,23.80
2018-09-18T09:04:29.475Z,24.20
2018-09-18T09:07:02.661Z,24.30
2018-09-18T09:09:49.439Z,24.70
2018-09-18T09:12:18.028Z,25.10
2018-09-18T09:14:50.211Z,24.90
2018-09-18T09:17:18.886Z,25.10
2018-09-18T09:19:51.060Z,25.40
2018-09-18T09:22:20.073Z,25.60
2018-09-18T09:24:52.040Z,25.80
2018-09-18T09:27:20.641Z,26.20
2018-09-18T09:29:53.019Z,26.20
2018-09-18T09:32:21.823Z,26.30
2018-09-18T09:34:54.604Z,26.20
2018-09-18T09:37:23.264Z,26.20
2018-09-18T09:39:56.571Z,26.60
2018-09-18T09:42:25.290Z,26.80
2018-09-18T09:44:57.341Z,26.70
2018-09-18T09:47:25.995Z,26.90
2018-09-18T09:49:58.219Z,27.30
2018-09-18T09:52:26.876Z,27.70
2018-09-18T09:54:59.015Z,27.70
2018-09-18T09:57:28.355Z,27.80
2018-09-18T10:00:00.290Z,28.00
2018-09-18T10:02:30.235Z,28.40
2018-09-18T10:05:03.502Z,28.40
2018-09-18T10:07:32.102Z,28.40
2018-09-18T10:10:19.000Z,28.10
2018-09-18T10:12:47.662Z,28.30
2018-09-18T10:15:21.599Z,28.50
2018-09-18T10:17:50.274Z,28.80
2018-09-18T10:20:23.428Z,28.90
2018-09-18T10:22:52.049Z,29.10
2018-09-18T10:25:24.641Z,29.10
2018-09-18T10:27:53.272Z,29.60
2018-09-18T10:30:25.231Z,29.30
2018-09-18T10:32:54.215Z,29.40
2018-09-18T10:35:26.096Z,29.40
2018-09-18T10:37:54.736Z,30.00
2018-09-18T10:40:26.914Z,30.10
2018-09-18T10:42:55.732Z,30.50
2018-09-18T10:45:28.706Z,30.80
2018-09-18T10:47:57.340Z,31.10
2018-09-18T10:50:30.464Z,30.70
2018-09-18T10:52:59.046Z,30.80
2018-09-18T10:55:31.518Z,31.10
2018-09-18T10:58:00.077Z,31.30
2018-09-18T11:00:32.286Z,32.00
2018-09-18T11:03:00.896Z,31.70
2018-09-18T11:05:33.184Z,31.80
2018-09-18T11:08:01.785Z,32.20
2018-09-18T11:10:37.747Z,32.00
2018-09-18T11:13:06.412Z,32.20
2018-09-18T11:15:39.438Z,32.30
2018-09-18T11:18:08.083Z,32.90
2018-09-18T11:20:40.354Z,32.70
2018-09-18T11:23:08.939Z,32.40
2018-09-18T11:25:41.874Z,32.30
2018-09-18T11:28:10.461Z,32.90
2018-09-18T11:30:42.078Z,32.50
2018-09-18T11:33:10.718Z,32.80
2018-09-18T11:35:42.929Z,33.40
2018-09-18T11:38:11.509Z,33.50
2018-09-18T11:40:40.060Z,32.40
2018-09-18T11:43:12.407Z,32.30
2018-09-18T11:45:41.118Z,33.00
2018-09-18T11:48:13.285Z,33.60
2018-09-18T11:50:42.045Z,33.70
2018-09-18T11:53:14.203Z,33.30
2018-09-18T11:55:42.754Z,32.70
2018-09-18T11:58:15.076Z,33.10
2018-09-18T12:00:43.716Z,32.60
2018-09-18T12:03:16.130Z,32.80
2018-09-18T12:05:44.628Z,32.90
2018-09-18T12:08:17.740Z,32.20
2018-09-18T12:10:49.637Z,32.40
2018-09-18T12:13:21.479Z,33.10
2018-09-18T12:15:50.040Z,33.50
2018-09-18T12:18:22.203Z,32.90
2018-09-18T12:20:51.650Z,33.50
2018-09-18T12:23:23.065Z,34.00
2018-09-18T12:25:51.646Z,33.60
2018-09-18T12:28:20.246Z,33.70
2018-09-18T12:30:54.500Z,33.90
2018-09-18T12:33:23.075Z,34.10
2018-09-18T12:35:55.386Z,33.80
2018-09-18T12:38:24.922Z,34.20
2018-09-18T12:40:57.065Z,34.40
2018-09-18T12:43:25.731Z,34.20
2018-09-18T12:45:57.949Z,33.90
2018-09-18T12:48:26.571Z,34.00
2018-09-18T12:50:59.865Z,33.00
2018-09-18T12:53:28.363Z,33.40
2018-09-18T12:56:01.757Z,33.10
2018-09-18T12:58:30.428Z,33.20
2018-09-18T13:01:02.522Z,33.80
2018-09-18T13:03:31.193Z,33.60
2018-09-18T13:06:03.352Z,33.50
2018-09-18T13:08:32.524Z,33.50
2018-09-18T13:11:08.703Z,33.50
2018-09-18T13:13:38.067Z,33.50
2018-09-18T13:16:10.479Z,33.50
2018-09-18T13:18:39.229Z,33.50
2018-09-18T13:21:11.319Z,33.50
2018-09-18T13:23:39.975Z,33.70
2018-09-18T13:26:12.215Z,33.70
2018-09-18T13:28:40.905Z,33.70
2018-09-18T13:31:13.218Z,33.50
2018-09-18T13:33:41.833Z,32.80
2018-09-18T13:36:14.363Z,32.60
2018-09-18T13:38:43.040Z,32.60
2018-09-18T13:41:16.873Z,32.60
2018-09-18T13:43:45.586Z,32.80
2018-09-18T13:46:17.671Z,32.30
2018-09-18T13:48:46.394Z,32.00
2018-09-18T13:51:18.503Z,32.20
2018-09-18T13:53:47.216Z,31.70
2018-09-18T13:56:23.393Z,31.70
2018-09-18T13:58:59.882Z,31.70
2018-09-18T14:01:34.037Z,31.70
2018-09-18T14:04:02.536Z,31.30
2018-09-18T14:06:35.689Z,30.90
2018-09-18T14:09:06.011Z,31.10
2018-09-18T14:11:42.839Z,30.90
2018-09-18T14:14:11.583Z,30.60
2018-09-18T14:16:44.644Z,30.20
2018-09-18T14:19:13.310Z,30.40
2018-09-18T14:21:45.483Z,30.20
2018-09-18T14:24:14.245Z,29.90
2018-09-18T14:26:47.365Z,30.10
2018-09-18T14:29:15.968Z,30.10
2018-09-18T14:31:48.252Z,29.80
2018-09-18T14:34:16.923Z,29.80
2018-09-18T14:36:49.117Z,29.80
2018-09-18T14:39:17.716Z,29.70
2018-09-18T14:41:50.801Z,29.40
2018-09-18T14:44:19.440Z,29.50
2018-09-18T14:46:52.731Z,29.40
2018-09-18T14:49:21.481Z,29.40
2018-09-18T14:51:54.344Z,29.40
2018-09-18T14:54:22.960Z,29.30
2018-09-18T14:56:55.333Z,29.20
2018-09-18T14:59:24.007Z,29.10
2018-09-18T15:01:56.108Z,29.00
2018-09-18T15:04:24.837Z,28.80
2018-09-18T15:06:57.076Z,28.70
2018-09-18T15:09:25.651Z,28.60
2018-09-18T15:12:00.619Z,28.70
2018-09-18T15:14:29.409Z,28.70
2018-09-18T15:17:02.475Z,28.50
2018-09-18T15:19:31.171Z,28.40
2018-09-18T15:22:04.103Z,28.40
2018-09-18T15:24:32.633Z,28.30
2018-09-18T15:27:04.128Z,28.30
2018-09-18T15:29:33.487Z,28.20
2018-09-18T15:32:05.023Z,28.20
2018-09-18T15:34:33.720Z,28.20
2018-09-18T15:37:06.906Z,28.20
2018-09-18T15:39:35.661Z,28.00
2018-09-18T15:42:08.711Z,28.10
2018-09-18T15:44:37.333Z,28.10
2018-09-18T15:47:09.537Z,28.10
2018-09-18T15:49:38.093Z,28.00
2018-09-18T15:52:10.463Z,27.90
2018-09-18T15:54:39.721Z,27.60
2018-09-18T15:57:11.246Z,27.50
2018-09-18T15:59:39.953Z,27.40
2018-09-18T16:02:14.906Z,27.50
2018-09-18T16:04:43.649Z,27.60
2018-09-18T16:07:16.688Z,27.50
2018-09-18T16:09:45.579Z,27.30
2018-09-18T16:12:21.222Z,27.20
2018-09-18T16:14:50.162Z,27.20
2018-09-18T16:17:23.011Z,26.90
2018-09-18T16:19:51.667Z,26.90
2018-09-18T16:22:24.802Z,26.90
2018-09-18T16:24:53.482Z,26.70
2018-09-18T16:27:25.602Z,26.80
2018-09-18T16:29:54.603Z,26.70
2018-09-18T16:32:26.532Z,26.50
2018-09-18T16:34:55.350Z,26.30
2018-09-18T16:37:27.472Z,26.20
2018-09-18T16:39:56.185Z,26.00
2018-09-18T16:42:28.249Z,25.90
2018-09-18T16:44:58.160Z,25.80
2018-09-18T16:47:30.940Z,25.60
2018-09-18T16:49:59.748Z,25.40
2018-09-18T16:52:32.726Z,25.20
2018-09-18T16:55:01.599Z,25.20
2018-09-18T16:57:33.562Z,25.10
2018-09-18T17:00:02.288Z,25.00
2018-09-18T17:02:34.570Z,24.90
2018-09-18T17:05:03.197Z,24.80
2018-09-18T17:07:35.401Z,24.70
2018-09-18T17:10:05.189Z,24.60
2018-09-18T17:12:41.847Z,24.40
2018-09-18T17:15:10.457Z,24.40
2018-09-18T17:17:42.502Z,24.20
2018-09-18T17:20:11.733Z,24.10
2018-09-18T17:22:43.389Z,23.90
2018-09-18T17:25:12.207Z,23.90
2018-09-18T17:27:44.361Z,23.70
2018-09-18T17:30:13.355Z,23.60
2018-09-18T17:32:45.242Z,23.50
2018-09-18T17:36:40.660Z,23.40
2018-09-18T17:39:15.822Z,23.10
2018-09-18T17:41:45.112Z,22.90
2018-09-18T17:44:16.681Z,23.00
2018-09-18T17:46:45.379Z,22.90
2018-09-18T17:49:17.804Z,22.80
2018-09-18T17:51:49.855Z,22.80
2018-09-18T17:54:23.025Z,22.80
2018-09-18T17:56:52.067Z,22.60
2018-09-18T17:59:24.884Z,22.40
2018-09-18T18:01:53.457Z,22.40
2018-09-18T18:04:25.680Z,22.40
2018-09-18T18:06:54.630Z,22.40
2018-09-18T18:09:26.436Z,22.40
2018-09-18T18:11:55.378Z,22.30
2018-09-18T18:14:30.962Z,22.30
2018-09-18T18:16:59.757Z,22.30
2018-09-18T18:19:32.840Z,22.40
2018-09-18T18:22:01.519Z,22.30
2018-09-18T18:24:33.599Z,22.30
2018-09-18T18:27:02.274Z,22.20
2018-09-18T18:29:35.338Z,22.20
2018-09-18T18:32:04.928Z,22.40
2018-09-18T18:34:37.348Z,22.10
2018-09-18T18:37:07.054Z,22.20
2018-09-18T18:39:39.987Z,22.10
2018-09-18T18:42:08.943Z,22.00
2018-09-18T18:44:42.698Z,21.80
2018-09-18T18:47:11.293Z,21.80
2018-09-18T18:49:43.451Z,21.60
2018-09-18T18:52:12.720Z,21.50
2018-09-18T18:54:45.355Z,21.60
2018-09-18T18:57:14.098Z,21.60
2018-09-18T18:59:48.370Z,21.60
2018-09-18T19:02:17.107Z,21.40
2018-09-18T19:04:49.704Z,21.30
2018-09-18T19:07:18.309Z,21.20
2018-09-18T19:09:50.652Z,21.20
2018-09-18T19:12:19.327Z,21.10
2018-09-18T19:14:54.167Z,21.10
2018-09-18T19:17:23.177Z,21.00
2018-09-18T19:19:55.997Z,20.90
2018-09-18T19:22:26.740Z,20.80
2018-09-18T19:24:58.674Z,20.60
2018-09-18T19:27:27.572Z,20.60
2018-09-18T19:30:00.386Z,20.50
2018-09-18T19:32:29.018Z,20.40
2018-09-18T19:35:01.297Z,20.30
2018-09-18T19:37:31.622Z,20.20
2018-09-18T19:40:05.836Z,20.00
2018-09-18T19:42:35.219Z,19.90
2018-09-18T19:45:06.736Z,19.70
2018-09-18T19:47:35.622Z,19.60
2018-09-18T19:50:23.948Z,19.60
2018-09-18T19:52:52.709Z,19.60
2018-09-18T19:55:24.808Z,19.60
2018-09-18T19:57:53.813Z,19.60
2018-09-18T20:00:25.669Z,19.50
2018-09-18T20:02:54.540Z,19.30
2018-09-18T20:05:26.573Z,19.40
2018-09-18T20:07:55.216Z,19.30
2018-09-18T20:10:27.436Z,19.20
2018-09-18T20:12:56.119Z,19.10
2018-09-18T20:15:31.888Z,19.10
2018-09-18T20:18:00.782Z,19.00
2018-09-18T20:20:32.807Z,19.00
2018-09-18T20:23:01.439Z,18.90
2018-09-18T20:25:33.748Z,18.90
2018-09-18T20:28:02.382Z,18.90
2018-09-18T20:30:34.765Z,18.80
2018-09-18T20:33:03.386Z,18.70
2018-09-18T20:35:35.479Z,18.80
2018-09-18T20:38:04.006Z,18.70
2018-09-18T20:40:32.529Z,18.70
2018-09-18T20:43:04.953Z,18.70
2018-09-18T20:45:33.630Z,18.70
2018-09-18T20:48:05.914Z,19.00
2018-09-18T20:50:34.574Z,19.10
2018-09-18T20:53:06.675Z,19.00
2018-09-18T20:55:36.349Z,19.20
2018-09-18T20:58:08.467Z,19.10
2018-09-18T21:00:37.157Z,19.10
2018-09-18T21:03:09.396Z,19.20
2018-09-18T21:05:37.974Z,19.10
2018-09-18T21:08:14.091Z,19.20
2018-09-18T21:10:47.963Z,19.00
2018-09-18T21:13:16.623Z,19.10
2018-09-18T21:15:52.379Z,18.90
2018-09-18T21:18:21.095Z,18.80
2018-09-18T21:20:53.381Z,18.90
2018-09-18T21:23:21.980Z,18.90
2018-09-18T21:26:16.854Z,18.80
2018-09-18T21:28:45.761Z,18.60
2018-09-18T21:31:17.780Z,18.70
2018-09-18T21:33:46.423Z,18.60
2018-09-18T21:36:18.609Z,18.60
2018-09-18T21:38:47.554Z,18.50
2018-09-18T21:41:19.541Z,18.40
2018-09-18T21:43:48.176Z,18.40
2018-09-18T21:46:21.014Z,18.30
2018-09-18T21:48:49.620Z,18.10
2018-09-18T21:51:22.079Z,18.00
2018-09-18T21:53:50.627Z,17.80
2018-09-18T21:56:23.019Z,17.60
2018-09-18T21:58:51.580Z,17.40
2018-09-18T22:01:24.816Z,17.30
2018-09-18T22:03:53.418Z,17.20
2018-09-18T22:06:25.632Z,17.20
2018-09-18T22:08:54.230Z,17.10
2018-09-18T22:11:22.871Z,17.10
2018-09-18T22:13:56.137Z,17.00
2018-09-18T22:16:27.814Z,17.00
2018-09-18T22:18:59.793Z,16.90
2018-09-18T22:21:28.337Z,16.80
2018-09-18T22:24:00.625Z,16.70
2018-09-18T22:26:29.218Z,16.70
2018-09-18T22:29:01.488Z,16.70
2018-09-18T22:31:30.066Z,16.70
2018-09-18T22:34:06.293Z,16.60
2018-09-18T22:36:34.878Z,16.50
2018-09-18T22:39:08.591Z,16.60
2018-09-18T22:41:37.162Z,16.50
2018-09-18T22:44:09.507Z,16.40
2018-09-18T22:46:38.085Z,16.30
2018-09-18T22:49:10.454Z,16.30
2018-09-18T22:51:39.058Z,16.20
2018-09-18T22:54:11.316Z,16.20
2018-09-18T22:56:39.914Z,16.00
2018-09-18T22:59:13.126Z,16.00
2018-09-18T23:01:41.668Z,15.90
2018-09-18T23:04:14.832Z,15.90
2018-09-18T23:06:43.389Z,15.90
2018-09-18T23:09:16.269Z,15.80
2018-09-18T23:11:44.996Z,15.70
2018-09-18T23:14:17.491Z,15.70
2018-09-18T23:16:50.198Z,15.60
2018-09-18T23:19:22.873Z,15.60
2018-09-18T23:21:51.431Z,15.50
2018-09-18T23:24:19.980Z,15.50
2018-09-18T23:26:52.382Z,15.40
2018-09-18T23:29:20.997Z,15.40
2018-09-18T23:31:53.262Z,15.30
2018-09-18T23:34:22.111Z,15.30
2018-09-18T23:36:55.172Z,15.30
2018-09-18T23:39:23.725Z,15.20
2018-09-18T23:41:56.815Z,15.20
2018-09-18T23:44:25.371Z,15.20
2018-09-18T23:46:53.949Z,15.20
2018-09-18T23:49:25.455Z,15.20
2018-09-18T23:51:54.028Z,15.20
2018-09-18T23:54:26.313Z,15.20
2018-09-18T23:56:54.887Z,15.20
2018-09-18T23:59:23.454Z,15.10
